sensor_id;sensor_type;location;lat;lon;timestamp;P1;durP1;ratioP1;P2;durP2;ratioP2
17925;SDS011;9088;55.674;13.354;2023-04-25T00:00:48;4.10;;;4.00;;
17925;SDS011;9088;55.674;13.354;2023-04-25T00:03:15;4.30;;;4.10;;
17925;SDS011;9088;55.674;13.354;2023-04-25T00:05:43;4.50;;;4.30;;
17925;SDS011;9088;55.674;13.354;2023-04-25T00:08:10;4.70;;;4.50;;
17925;SDS011;9088;55.674;13.354;2023-04-25T00:10:37;4.70;;;4.50;;
17925;SDS011;9088;55.674;13.354;2023-04-25T00:13:05;4.77;;;4.57;;
17925;SDS011;9088;55.674;13.354;2023-04-25T00:15:33;4.70;;;4.50;;
17925;SDS011;9088;55.674;13.354;2023-04-25T00:18:01;4.73;;;4.53;;
17925;SDS011;9088;55.674;13.354;2023-04-25T00:20:28;5.30;;;5.10;;
17925;SDS011;9088;55.674;13.354;2023-04-25T00:22:57;5.20;;;5.00;;
17925;SDS011;9088;55.674;13.354;2023-04-25T00:25:24;5.40;;;5.20;;
17925;SDS011;9088;55.674;13.354;2023-04-25T00:27:52;5.53;;;5.33;;
17925;SDS011;9088;55.674;13.354;2023-04-25T00:30:20;5.60;;;5.40;;
17925;SDS011;9088;55.674;13.354;2023-04-25T00:32:47;5.50;;;5.30;;
17925;SDS011;9088;55.674;13.354;2023-04-25T00:35:14;5.70;;;5.50;;
17925;SDS011;9088;55.674;13.354;2023-04-25T00:37:41;5.70;;;5.50;;
17925;SDS011;9088;55.674;13.354;2023-04-25T00:40:09;5.70;;;5.50;;
17925;SDS011;9088;55.674;13.354;2023-04-25T00:42:37;6.00;;;5.80;;
17925;SDS011;9088;55.674;13.354;2023-04-25T00:45:05;6.17;;;5.97;;
17925;SDS011;9088;55.674;13.354;2023-04-25T00:47:34;6.20;;;6.00;;
17925;SDS011;9088;55.674;13.354;2023-04-25T00:50:02;6.17;;;5.97;;
17925;SDS011;9088;55.674;13.354;2023-04-25T00:52:29;6.23;;;6.03;;
17925;SDS011;9088;55.674;13.354;2023-04-25T00:54:56;6.03;;;5.83;;
17925;SDS011;9088;55.674;13.354;2023-04-25T00:57:23;5.97;;;5.77;;
17925;SDS011;9088;55.674;13.354;2023-04-25T00:59:51;5.90;;;5.70;;
17925;SDS011;9088;55.674;13.354;2023-04-25T01:02:18;5.93;;;5.73;;
17925;SDS011;9088;55.674;13.354;2023-04-25T01:04:46;5.87;;;5.67;;
17925;SDS011;9088;55.674;13.354;2023-04-25T01:07:14;5.67;;;5.47;;
17925;SDS011;9088;55.674;13.354;2023-04-25T01:09:41;5.30;;;5.10;;
17925;SDS011;9088;55.674;13.354;2023-04-25T01:12:08;5.40;;;5.20;;
17925;SDS011;9088;55.674;13.354;2023-04-25T01:14:35;5.77;;;5.57;;
17925;SDS011;9088;55.674;13.354;2023-04-25T01:17:02;5.90;;;5.70;;
17925;SDS011;9088;55.674;13.354;2023-04-25T01:19:29;5.50;;;5.30;;
17925;SDS011;9088;55.674;13.354;2023-04-25T01:21:58;5.77;;;5.57;;
17925;SDS011;9088;55.674;13.354;2023-04-25T01:24:25;5.80;;;5.60;;
17925;SDS011;9088;55.674;13.354;2023-04-25T01:26:52;6.10;;;5.90;;
17925;SDS011;9088;55.674;13.354;2023-04-25T01:29:21;6.07;;;5.87;;
17925;SDS011;9088;55.674;13.354;2023-04-25T01:31:48;5.93;;;5.73;;
17925;SDS011;9088;55.674;13.354;2023-04-25T01:34:15;6.10;;;5.90;;
17925;SDS011;9088;55.674;13.354;2023-04-25T01:36:42;6.20;;;6.00;;
17925;SDS011;9088;55.674;13.354;2023-04-25T01:39:11;6.40;;;6.20;;
17925;SDS011;9088;55.674;13.354;2023-04-25T01:41:38;6.50;;;6.30;;
17925;SDS011;9088;55.674;13.354;2023-04-25T01:44:05;6.30;;;6.10;;
17925;SDS011;9088;55.674;13.354;2023-04-25T01:46:32;6.00;;;5.80;;
17925;SDS011;9088;55.674;13.354;2023-04-25T01:48:59;6.20;;;6.00;;
17925;SDS011;9088;55.674;13.354;2023-04-25T01:51:27;6.00;;;5.80;;
17925;SDS011;9088;55.674;13.354;2023-04-25T01:53:56;6.30;;;6.10;;
17925;SDS011;9088;55.674;13.354;2023-04-25T01:56:25;6.20;;;6.00;;
17925;SDS011;9088;55.674;13.354;2023-04-25T01:58:52;6.17;;;5.97;;
17925;SDS011;9088;55.674;13.354;2023-04-25T02:01:19;6.00;;;5.80;;
17925;SDS011;9088;55.674;13.354;2023-04-25T02:03:46;6.00;;;5.80;;
17925;SDS011;9088;55.674;13.354;2023-04-25T02:06:13;5.87;;;5.67;;
17925;SDS011;9088;55.674;13.354;2023-04-25T02:08:40;5.60;;;5.40;;
17925;SDS011;9088;55.674;13.354;2023-04-25T02:11:07;5.73;;;5.53;;
17925;SDS011;9088;55.674;13.354;2023-04-25T02:13:35;5.80;;;5.60;;
17925;SDS011;9088;55.674;13.354;2023-04-25T02:16:02;5.87;;;5.67;;
17925;SDS011;9088;55.674;13.354;2023-04-25T02:18:29;5.70;;;5.50;;
17925;SDS011;9088;55.674;13.354;2023-04-25T02:20:58;6.00;;;5.80;;
17925;SDS011;9088;55.674;13.354;2023-04-25T02:23:26;6.00;;;5.80;;
17925;SDS011;9088;55.674;13.354;2023-04-25T02:25:53;6.30;;;6.10;;
17925;SDS011;9088;55.674;13.354;2023-04-25T02:28:21;6.23;;;6.03;;
17925;SDS011;9088;55.674;13.354;2023-04-25T02:30:49;6.40;;;6.20;;
17925;SDS011;9088;55.674;13.354;2023-04-25T02:33:16;6.23;;;6.03;;
17925;SDS011;9088;55.674;13.354;2023-04-25T02:35:43;6.47;;;6.27;;
17925;SDS011;9088;55.674;13.354;2023-04-25T02:38:10;6.00;;;5.80;;
17925;SDS011;9088;55.674;13.354;2023-04-25T02:40:37;5.97;;;5.77;;
17925;SDS011;9088;55.674;13.354;2023-04-25T02:43:04;6.00;;;5.80;;
17925;SDS011;9088;55.674;13.354;2023-04-25T02:45:32;6.00;;;5.80;;
17925;SDS011;9088;55.674;13.354;2023-04-25T02:48:00;6.20;;;6.00;;
17925;SDS011;9088;55.674;13.354;2023-04-25T02:50:27;6.20;;;6.00;;
17925;SDS011;9088;55.674;13.354;2023-04-25T02:52:54;6.00;;;5.80;;
17925;SDS011;9088;55.674;13.354;2023-04-25T02:55:21;5.97;;;5.77;;
17925;SDS011;9088;55.674;13.354;2023-04-25T02:57:51;5.90;;;5.70;;
17925;SDS011;9088;55.674;13.354;2023-04-25T03:00:20;6.10;;;5.90;;
17925;SDS011;9088;55.674;13.354;2023-04-25T03:02:47;6.10;;;5.90;;
17925;SDS011;9088;55.674;13.354;2023-04-25T03:05:16;6.40;;;6.20;;
17925;SDS011;9088;55.674;13.354;2023-04-25T03:07:43;6.50;;;6.30;;
17925;SDS011;9088;55.674;13.354;2023-04-25T03:10:10;6.50;;;6.30;;
17925;SDS011;9088;55.674;13.354;2023-04-25T03:12:37;6.10;;;5.90;;
17925;SDS011;9088;55.674;13.354;2023-04-25T03:15:05;6.17;;;5.97;;
17925;SDS011;9088;55.674;13.354;2023-04-25T03:17:32;6.10;;;5.90;;
17925;SDS011;9088;55.674;13.354;2023-04-25T03:19:59;6.50;;;6.30;;
17925;SDS011;9088;55.674;13.354;2023-04-25T03:22:30;6.30;;;6.10;;
17925;SDS011;9088;55.674;13.354;2023-04-25T03:24:57;6.30;;;6.10;;
17925;SDS011;9088;55.674;13.354;2023-04-25T03:27:24;6.00;;;5.80;;
17925;SDS011;9088;55.674;13.354;2023-04-25T03:29:51;5.80;;;5.60;;
17925;SDS011;9088;55.674;13.354;2023-04-25T03:32:18;5.50;;;5.30;;
17925;SDS011;9088;55.674;13.354;2023-04-25T03:34:45;5.20;;;5.00;;
17925;SDS011;9088;55.674;13.354;2023-04-25T03:37:12;5.70;;;5.50;;
17925;SDS011;9088;55.674;13.354;2023-04-25T03:39:41;5.90;;;5.70;;
17925;SDS011;9088;55.674;13.354;2023-04-25T03:42:08;5.57;;;5.37;;
17925;SDS011;9088;55.674;13.354;2023-04-25T03:44:35;5.30;;;5.10;;
17925;SDS011;9088;55.674;13.354;2023-04-25T03:47:04;5.10;;;4.90;;
17925;SDS011;9088;55.674;13.354;2023-04-25T03:49:32;4.90;;;4.70;;
17925;SDS011;9088;55.674;13.354;2023-04-25T03:51:59;4.90;;;4.70;;
17925;SDS011;9088;55.674;13.354;2023-04-25T03:54:26;5.07;;;4.87;;
17925;SDS011;9088;55.674;13.354;2023-04-25T03:56:54;5.00;;;4.80;;
17925;SDS011;9088;55.674;13.354;2023-04-25T03:59:21;5.10;;;4.90;;
17925;SDS011;9088;55.674;13.354;2023-04-25T04:01:49;5.13;;;4.93;;
17925;SDS011;9088;55.674;13.354;2023-04-25T04:04:17;5.00;;;4.80;;
17925;SDS011;9088;55.674;13.354;2023-04-25T04:06:44;5.20;;;5.00;;
17925;SDS011;9088;55.674;13.354;2023-04-25T04:09:11;5.30;;;5.10;;
17925;SDS011;9088;55.674;13.354;2023-04-25T04:11:38;5.30;;;5.10;;
17925;SDS011;9088;55.674;13.354;2023-04-25T04:14:07;5.20;;;5.00;;
17925;SDS011;9088;55.674;13.354;2023-04-25T04:16:35;5.60;;;5.40;;
17925;SDS011;9088;55.674;13.354;2023-04-25T04:19:02;5.50;;;5.30;;
17925;SDS011;9088;55.674;13.354;2023-04-25T04:21:29;5.23;;;5.03;;
17925;SDS011;9088;55.674;13.354;2023-04-25T04:23:56;5.40;;;5.20;;
17925;SDS011;9088;55.674;13.354;2023-04-25T04:26:24;5.40;;;5.20;;
17925;SDS011;9088;55.674;13.354;2023-04-25T04:28:52;5.10;;;4.90;;
17925;SDS011;9088;55.674;13.354;2023-04-25T04:31:21;5.37;;;5.17;;
17925;SDS011;9088;55.674;13.354;2023-04-25T04:33:48;5.30;;;5.10;;
17925;SDS011;9088;55.674;13.354;2023-04-25T04:36:15;5.10;;;4.90;;
17925;SDS011;9088;55.674;13.354;2023-04-25T04:38:44;5.33;;;5.13;;
17925;SDS011;9088;55.674;13.354;2023-04-25T04:41:11;5.80;;;5.60;;
17925;SDS011;9088;55.674;13.354;2023-04-25T04:43:39;6.10;;;5.90;;
17925;SDS011;9088;55.674;13.354;2023-04-25T04:46:06;5.60;;;5.40;;
17925;SDS011;9088;55.674;13.354;2023-04-25T04:48:36;5.53;;;5.33;;
17925;SDS011;9088;55.674;13.354;2023-04-25T04:51:05;5.00;;;4.80;;
17925;SDS011;9088;55.674;13.354;2023-04-25T04:53:32;4.80;;;4.60;;
17925;SDS011;9088;55.674;13.354;2023-04-25T04:55:59;4.83;;;4.63;;
17925;SDS011;9088;55.674;13.354;2023-04-25T04:58:26;4.90;;;4.70;;
17925;SDS011;9088;55.674;13.354;2023-04-25T05:00:54;5.07;;;4.87;;
17925;SDS011;9088;55.674;13.354;2023-04-25T05:03:21;8.03;;;7.73;;
17925;SDS011;9088;55.674;13.354;2023-04-25T05:05:50;10.83;;;10.43;;
17925;SDS011;9088;55.674;13.354;2023-04-25T05:08:17;10.90;;;10.50;;
17925;SDS011;9088;55.674;13.354;2023-04-25T05:10:44;10.57;;;10.17;;
17925;SDS011;9088;55.674;13.354;2023-04-25T05:13:11;11.33;;;10.83;;
17925;SDS011;9088;55.674;13.354;2023-04-25T05:15:38;10.70;;;10.30;;
17925;SDS011;9088;55.674;13.354;2023-04-25T05:18:05;11.23;;;10.73;;
17925;SDS011;9088;55.674;13.354;2023-04-25T05:20:32;11.10;;;10.60;;
17925;SDS011;9088;55.674;13.354;2023-04-25T05:23:02;9.87;;;9.47;;
17925;SDS011;9088;55.674;13.354;2023-04-25T05:25:29;9.87;;;9.47;;
17925;SDS011;9088;55.674;13.354;2023-04-25T05:27:56;9.37;;;8.97;;
17925;SDS011;9088;55.674;13.354;2023-04-25T05:30:23;9.30;;;8.90;;
17925;SDS011;9088;55.674;13.354;2023-04-25T05:32:50;9.63;;;9.23;;
17925;SDS011;9088;55.674;13.354;2023-04-25T05:35:17;9.77;;;9.37;;
17925;SDS011;9088;55.674;13.354;2023-04-25T05:37:45;9.60;;;9.20;;
17925;SDS011;9088;55.674;13.354;2023-04-25T05:40:13;9.00;;;8.60;;
17925;SDS011;9088;55.674;13.354;2023-04-25T05:42:40;9.00;;;8.60;;
17925;SDS011;9088;55.674;13.354;2023-04-25T05:45:07;9.70;;;9.30;;
17925;SDS011;9088;55.674;13.354;2023-04-25T05:47:34;9.10;;;8.70;;
17925;SDS011;9088;55.674;13.354;2023-04-25T05:50:03;9.37;;;8.97;;
17925;SDS011;9088;55.674;13.354;2023-04-25T05:52:31;9.63;;;9.23;;
17925;SDS011;9088;55.674;13.354;2023-04-25T05:54:58;8.50;;;8.20;;
17925;SDS011;9088;55.674;13.354;2023-04-25T05:57:26;8.53;;;8.23;;
17925;SDS011;9088;55.674;13.354;2023-04-25T05:59:53;9.00;;;8.60;;
17925;SDS011;9088;55.674;13.354;2023-04-25T06:02:20;8.67;;;8.37;;
17925;SDS011;9088;55.674;13.354;2023-04-25T06:04:48;9.30;;;8.90;;
17925;SDS011;9088;55.674;13.354;2023-04-25T06:09:55;9.33;;;8.93;;
17925;SDS011;9088;55.674;13.354;2023-04-25T06:12:22;9.20;;;8.80;;
17925;SDS011;9088;55.674;13.354;2023-04-25T06:14:51;9.13;;;8.73;;
17925;SDS011;9088;55.674;13.354;2023-04-25T06:17:18;9.30;;;8.90;;
17925;SDS011;9088;55.674;13.354;2023-04-25T06:19:45;9.00;;;8.60;;
17925;SDS011;9088;55.674;13.354;2023-04-25T06:22:12;8.37;;;8.07;;
17925;SDS011;9088;55.674;13.354;2023-04-25T06:24:39;9.20;;;8.80;;
17925;SDS011;9088;55.674;13.354;2023-04-25T06:27:06;9.23;;;8.83;;
17925;SDS011;9088;55.674;13.354;2023-04-25T06:29:33;9.77;;;9.37;;
17925;SDS011;9088;55.674;13.354;2023-04-25T06:32:01;10.33;;;9.93;;
17925;SDS011;9088;55.674;13.354;2023-04-25T06:34:28;10.03;;;9.63;;
17925;SDS011;9088;55.674;13.354;2023-04-25T06:36:55;9.50;;;9.10;;
17925;SDS011;9088;55.674;13.354;2023-04-25T06:39:22;9.30;;;8.90;;
17925;SDS011;9088;55.674;13.354;2023-04-25T06:41:50;9.30;;;8.90;;
17925;SDS011;9088;55.674;13.354;2023-04-25T06:44:18;8.93;;;8.57;;
17925;SDS011;9088;55.674;13.354;2023-04-25T06:46:46;9.03;;;8.63;;
17925;SDS011;9088;55.674;13.354;2023-04-25T06:49:14;9.90;;;9.50;;
17925;SDS011;9088;55.674;13.354;2023-04-25T06:51:41;9.47;;;9.07;;
17925;SDS011;9088;55.674;13.354;2023-04-25T06:54:08;9.33;;;8.93;;
17925;SDS011;9088;55.674;13.354;2023-04-25T06:56:35;9.87;;;9.47;;
17925;SDS011;9088;55.674;13.354;2023-04-25T06:59:02;10.13;;;9.73;;
17925;SDS011;9088;55.674;13.354;2023-04-25T07:01:29;10.33;;;9.93;;
17925;SDS011;9088;55.674;13.354;2023-04-25T07:03:57;10.70;;;10.30;;
17925;SDS011;9088;55.674;13.354;2023-04-25T07:06:28;10.53;;;10.13;;
17925;SDS011;9088;55.674;13.354;2023-04-25T07:08:56;10.30;;;9.90;;
17925;SDS011;9088;55.674;13.354;2023-04-25T07:11:23;9.93;;;9.53;;
17925;SDS011;9088;55.674;13.354;2023-04-25T07:13:50;9.30;;;8.90;;
17925;SDS011;9088;55.674;13.354;2023-04-25T07:16:17;8.67;;;8.37;;
17925;SDS011;9088;55.674;13.354;2023-04-25T07:18:44;9.20;;;8.80;;
17925;SDS011;9088;55.674;13.354;2023-04-25T07:21:11;8.50;;;8.20;;
17925;SDS011;9088;55.674;13.354;2023-04-25T07:23:39;8.20;;;7.90;;
17925;SDS011;9088;55.674;13.354;2023-04-25T07:26:06;8.60;;;8.30;;
17925;SDS011;9088;55.674;13.354;2023-04-25T07:28:33;8.20;;;7.90;;
17925;SDS011;9088;55.674;13.354;2023-04-25T07:31:00;8.17;;;7.87;;
17925;SDS011;9088;55.674;13.354;2023-04-25T07:33:28;7.80;;;7.50;;
17925;SDS011;9088;55.674;13.354;2023-04-25T07:35:55;7.43;;;7.13;;
17925;SDS011;9088;55.674;13.354;2023-04-25T07:38:22;7.70;;;7.40;;
17925;SDS011;9088;55.674;13.354;2023-04-25T07:40:51;7.03;;;6.73;;
17925;SDS011;9088;55.674;13.354;2023-04-25T07:43:21;7.63;;;7.33;;
17925;SDS011;9088;55.674;13.354;2023-04-25T07:45:48;7.67;;;7.37;;
17925;SDS011;9088;55.674;13.354;2023-04-25T07:48:16;7.70;;;7.40;;
17925;SDS011;9088;55.674;13.354;2023-04-25T07:50:43;7.20;;;6.90;;
17925;SDS011;9088;55.674;13.354;2023-04-25T07:53:10;7.60;;;7.30;;
17925;SDS011;9088;55.674;13.354;2023-04-25T07:55:38;7.70;;;7.40;;
17925;SDS011;9088;55.674;13.354;2023-04-25T07:58:07;7.63;;;7.33;;
17925;SDS011;9088;55.674;13.354;2023-04-25T08:00:34;7.80;;;7.50;;
17925;SDS011;9088;55.674;13.354;2023-04-25T08:03:01;8.50;;;8.20;;
17925;SDS011;9088;55.674;13.354;2023-04-25T08:05:28;8.47;;;8.17;;
17925;SDS011;9088;55.674;13.354;2023-04-25T08:07:55;8.30;;;8.00;;
17925;SDS011;9088;55.674;13.354;2023-04-25T08:10:22;9.30;;;8.90;;
17925;SDS011;9088;55.674;13.354;2023-04-25T08:12:52;9.43;;;9.03;;
17925;SDS011;9088;55.674;13.354;2023-04-25T08:15:20;10.37;;;9.97;;
17925;SDS011;9088;55.674;13.354;2023-04-25T08:17:50;10.47;;;10.07;;
17925;SDS011;9088;55.674;13.354;2023-04-25T08:20:17;11.07;;;10.67;;
17925;SDS011;9088;55.674;13.354;2023-04-25T08:22:44;10.80;;;10.40;;
17925;SDS011;9088;55.674;13.354;2023-04-25T08:25:12;10.37;;;9.97;;
17925;SDS011;9088;55.674;13.354;2023-04-25T08:27:39;10.00;;;9.60;;
17925;SDS011;9088;55.674;13.354;2023-04-25T08:30:06;9.77;;;9.37;;
17925;SDS011;9088;55.674;13.354;2023-04-25T08:32:35;10.17;;;9.77;;
17925;SDS011;9088;55.674;13.354;2023-04-25T08:35:04;9.60;;;9.20;;
17925;SDS011;9088;55.674;13.354;2023-04-25T08:37:31;10.10;;;9.70;;
17925;SDS011;9088;55.674;13.354;2023-04-25T08:39:58;9.80;;;9.40;;
17925;SDS011;9088;55.674;13.354;2023-04-25T08:42:26;9.93;;;9.53;;
17925;SDS011;9088;55.674;13.354;2023-04-25T08:44:57;9.63;;;9.23;;
17925;SDS011;9088;55.674;13.354;2023-04-25T08:47:25;9.77;;;9.37;;
17925;SDS011;9088;55.674;13.354;2023-04-25T08:49:55;10.40;;;10.00;;
17925;SDS011;9088;55.674;13.354;2023-04-25T08:52:23;10.27;;;9.87;;
17925;SDS011;9088;55.674;13.354;2023-04-25T08:54:50;9.87;;;9.47;;
17925;SDS011;9088;55.674;13.354;2023-04-25T08:57:18;10.00;;;9.60;;
17925;SDS011;9088;55.674;13.354;2023-04-25T08:59:45;9.87;;;9.47;;
17925;SDS011;9088;55.674;13.354;2023-04-25T09:02:13;9.80;;;9.40;;
17925;SDS011;9088;55.674;13.354;2023-04-25T09:04:42;10.77;;;10.37;;
17925;SDS011;9088;55.674;13.354;2023-04-25T09:07:11;10.10;;;9.70;;
17925;SDS011;9088;55.674;13.354;2023-04-25T09:09:40;10.93;;;10.53;;
17925;SDS011;9088;55.674;13.354;2023-04-25T09:12:07;10.47;;;10.07;;
17925;SDS011;9088;55.674;13.354;2023-04-25T09:14:35;10.30;;;9.90;;
17925;SDS011;9088;55.674;13.354;2023-04-25T09:17:03;10.07;;;9.67;;
17925;SDS011;9088;55.674;13.354;2023-04-25T09:19:33;9.73;;;9.33;;
17925;SDS011;9088;55.674;13.354;2023-04-25T09:22:01;10.43;;;10.03;;
17925;SDS011;9088;55.674;13.354;2023-04-25T09:24:33;9.63;;;9.23;;
17925;SDS011;9088;55.674;13.354;2023-04-25T09:27:02;9.30;;;8.90;;
17925;SDS011;9088;55.674;13.354;2023-04-25T09:29:30;8.53;;;8.23;;
17925;SDS011;9088;55.674;13.354;2023-04-25T09:32:10;9.47;;;9.07;;
17925;SDS011;9088;55.674;13.354;2023-04-25T09:34:38;9.23;;;8.83;;
17925;SDS011;9088;55.674;13.354;2023-04-25T09:37:06;9.47;;;9.07;;
17925;SDS011;9088;55.674;13.354;2023-04-25T09:39:34;9.20;;;8.80;;
17925;SDS011;9088;55.674;13.354;2023-04-25T09:42:02;9.10;;;8.70;;
17925;SDS011;9088;55.674;13.354;2023-04-25T09:44:29;8.77;;;8.47;;
17925;SDS011;9088;55.674;13.354;2023-04-25T09:46:56;8.30;;;8.00;;
17925;SDS011;9088;55.674;13.354;2023-04-25T09:49:24;9.00;;;8.60;;
17925;SDS011;9088;55.674;13.354;2023-04-25T09:51:55;8.80;;;8.50;;
17925;SDS011;9088;55.674;13.354;2023-04-25T09:54:22;9.47;;;9.07;;
17925;SDS011;9088;55.674;13.354;2023-04-25T09:56:52;9.30;;;8.90;;
17925;SDS011;9088;55.674;13.354;2023-04-25T09:59:19;9.10;;;8.70;;
17925;SDS011;9088;55.674;13.354;2023-04-25T10:01:48;9.03;;;8.63;;
17925;SDS011;9088;55.674;13.354;2023-04-25T10:04:16;9.00;;;8.60;;
17925;SDS011;9088;55.674;13.354;2023-04-25T10:06:45;8.50;;;8.20;;
17925;SDS011;9088;55.674;13.354;2023-04-25T10:09:15;8.50;;;8.20;;
17925;SDS011;9088;55.674;13.354;2023-04-25T10:11:42;9.00;;;8.60;;
17925;SDS011;9088;55.674;13.354;2023-04-25T10:14:12;8.30;;;8.00;;
17925;SDS011;9088;55.674;13.354;2023-04-25T10:16:39;9.57;;;9.17;;
17925;SDS011;9088;55.674;13.354;2023-04-25T10:19:06;9.80;;;9.40;;
17925;SDS011;9088;55.674;13.354;2023-04-25T10:21:33;9.20;;;8.80;;
17925;SDS011;9088;55.674;13.354;2023-04-25T10:24:01;8.17;;;7.87;;
17925;SDS011;9088;55.674;13.354;2023-04-25T10:26:30;8.17;;;7.87;;
17925;SDS011;9088;55.674;13.354;2023-04-25T10:28:58;9.17;;;8.77;;
17925;SDS011;9088;55.674;13.354;2023-04-25T10:31:30;9.60;;;9.20;;
17925;SDS011;9088;55.674;13.354;2023-04-25T10:33:58;8.70;;;8.40;;
17925;SDS011;9088;55.674;13.354;2023-04-25T10:36:26;9.50;;;9.10;;
17925;SDS011;9088;55.674;13.354;2023-04-25T10:38:58;7.83;;;7.53;;
17925;SDS011;9088;55.674;13.354;2023-04-25T10:41:31;9.23;;;8.83;;
17925;SDS011;9088;55.674;13.354;2023-04-25T10:43:59;9.67;;;9.27;;
17925;SDS011;9088;55.674;13.354;2023-04-25T10:46:30;7.80;;;7.50;;
17925;SDS011;9088;55.674;13.354;2023-04-25T10:49:01;8.60;;;8.30;;
17925;SDS011;9088;55.674;13.354;2023-04-25T10:51:29;8.93;;;8.53;;
17925;SDS011;9088;55.674;13.354;2023-04-25T10:53:58;9.20;;;8.80;;
17925;SDS011;9088;55.674;13.354;2023-04-25T10:56:26;8.03;;;7.73;;
17925;SDS011;9088;55.674;13.354;2023-04-25T10:59:02;6.90;;;6.60;;
17925;SDS011;9088;55.674;13.354;2023-04-25T11:01:36;7.10;;;6.80;;
17925;SDS011;9088;55.674;13.354;2023-04-25T11:04:03;7.00;;;6.70;;
17925;SDS011;9088;55.674;13.354;2023-04-25T11:06:32;6.80;;;6.50;;
17925;SDS011;9088;55.674;13.354;2023-04-25T11:09:02;6.10;;;5.90;;
17925;SDS011;9088;55.674;13.354;2023-04-25T11:11:30;5.80;;;5.60;;
17925;SDS011;9088;55.674;13.354;2023-04-25T11:13:57;6.00;;;5.80;;
17925;SDS011;9088;55.674;13.354;2023-04-25T11:16:24;5.40;;;5.20;;
17925;SDS011;9088;55.674;13.354;2023-04-25T11:18:53;6.10;;;5.90;;
17925;SDS011;9088;55.674;13.354;2023-04-25T11:21:20;6.00;;;5.80;;
17925;SDS011;9088;55.674;13.354;2023-04-25T11:23:47;6.67;;;6.37;;
17925;SDS011;9088;55.674;13.354;2023-04-25T11:26:14;5.60;;;5.40;;
17925;SDS011;9088;55.674;13.354;2023-04-25T11:28:44;6.10;;;5.90;;
17925;SDS011;9088;55.674;13.354;2023-04-25T11:31:11;6.57;;;6.33;;
17925;SDS011;9088;55.674;13.354;2023-04-25T11:33:38;5.70;;;5.50;;
17925;SDS011;9088;55.674;13.354;2023-04-25T11:36:07;6.20;;;6.00;;
17925;SDS011;9088;55.674;13.354;2023-04-25T11:38:35;5.60;;;5.40;;
17925;SDS011;9088;55.674;13.354;2023-04-25T11:41:02;5.67;;;5.47;;
17925;SDS011;9088;55.674;13.354;2023-04-25T11:43:29;5.07;;;4.87;;
17925;SDS011;9088;55.674;13.354;2023-04-25T11:45:56;4.77;;;4.57;;
17925;SDS011;9088;55.674;13.354;2023-04-25T11:48:23;4.90;;;4.70;;
17925;SDS011;9088;55.674;13.354;2023-04-25T11:50:50;4.90;;;4.70;;
17925;SDS011;9088;55.674;13.354;2023-04-25T11:53:19;4.20;;;4.10;;
17925;SDS011;9088;55.674;13.354;2023-04-25T11:55:46;4.20;;;4.10;;
17925;SDS011;9088;55.674;13.354;2023-04-25T11:58:13;4.43;;;4.23;;
17925;SDS011;9088;55.674;13.354;2023-04-25T12:00:41;4.57;;;4.37;;
17925;SDS011;9088;55.674;13.354;2023-04-25T12:03:09;4.43;;;4.23;;
17925;SDS011;9088;55.674;13.354;2023-04-25T12:05:36;4.80;;;4.60;;
17925;SDS011;9088;55.674;13.354;2023-04-25T12:08:10;4.67;;;4.47;;
17925;SDS011;9088;55.674;13.354;2023-04-25T12:10:40;4.80;;;4.60;;
17925;SDS011;9088;55.674;13.354;2023-04-25T12:13:17;5.10;;;4.90;;
17925;SDS011;9088;55.674;13.354;2023-04-25T12:15:45;4.90;;;4.70;;
17925;SDS011;9088;55.674;13.354;2023-04-25T12:18:12;5.00;;;4.80;;
17925;SDS011;9088;55.674;13.354;2023-04-25T12:20:39;4.97;;;4.77;;
17925;SDS011;9088;55.674;13.354;2023-04-25T12:23:06;4.90;;;4.70;;
17925;SDS011;9088;55.674;13.354;2023-04-25T12:25:34;4.90;;;4.70;;
17925;SDS011;9088;55.674;13.354;2023-04-25T12:28:10;5.13;;;4.93;;
17925;SDS011;9088;55.674;13.354;2023-04-25T12:30:51;5.03;;;4.83;;
17925;SDS011;9088;55.674;13.354;2023-04-25T12:33:18;5.17;;;4.97;;
17925;SDS011;9088;55.674;13.354;2023-04-25T12:35:45;5.57;;;5.37;;
17925;SDS011;9088;55.674;13.354;2023-04-25T12:38:19;5.63;;;5.43;;
17925;SDS011;9088;55.674;13.354;2023-04-25T12:40:47;5.37;;;5.17;;
17925;SDS011;9088;55.674;13.354;2023-04-25T12:43:15;5.60;;;5.40;;
17925;SDS011;9088;55.674;13.354;2023-04-25T12:45:42;5.90;;;5.70;;
17925;SDS011;9088;55.674;13.354;2023-04-25T12:48:09;6.20;;;6.00;;
17925;SDS011;9088;55.674;13.354;2023-04-25T12:50:36;6.10;;;5.90;;
17925;SDS011;9088;55.674;13.354;2023-04-25T12:53:03;6.00;;;5.80;;
17925;SDS011;9088;55.674;13.354;2023-04-25T12:55:30;6.00;;;5.80;;
17925;SDS011;9088;55.674;13.354;2023-04-25T12:57:57;5.70;;;5.50;;
17925;SDS011;9088;55.674;13.354;2023-04-25T13:00:26;5.63;;;5.43;;
17925;SDS011;9088;55.674;13.354;2023-04-25T13:02:53;5.70;;;5.50;;
17925;SDS011;9088;55.674;13.354;2023-04-25T13:05:20;5.80;;;5.60;;
17925;SDS011;9088;55.674;13.354;2023-04-25T13:07:47;5.63;;;5.43;;
17925;SDS011;9088;55.674;13.354;2023-04-25T13:10:14;5.77;;;5.57;;
17925;SDS011;9088;55.674;13.354;2023-04-25T13:12:42;5.90;;;5.70;;
17925;SDS011;9088;55.674;13.354;2023-04-25T13:15:10;6.30;;;6.10;;
17925;SDS011;9088;55.674;13.354;2023-04-25T13:17:38;6.30;;;6.10;;
17925;SDS011;9088;55.674;13.354;2023-04-25T13:20:06;5.70;;;5.50;;
17925;SDS011;9088;55.674;13.354;2023-04-25T13:22:34;5.60;;;5.40;;
17925;SDS011;9088;55.674;13.354;2023-04-25T13:25:02;6.00;;;5.80;;
17925;SDS011;9088;55.674;13.354;2023-04-25T13:27:30;5.93;;;5.73;;
17925;SDS011;9088;55.674;13.354;2023-04-25T13:29:58;5.97;;;5.77;;
17925;SDS011;9088;55.674;13.354;2023-04-25T13:32:26;6.00;;;5.80;;
17925;SDS011;9088;55.674;13.354;2023-04-25T13:34:54;5.80;;;5.60;;
17925;SDS011;9088;55.674;13.354;2023-04-25T13:37:21;5.77;;;5.57;;
17925;SDS011;9088;55.674;13.354;2023-04-25T13:39:50;5.97;;;5.77;;
17925;SDS011;9088;55.674;13.354;2023-04-25T13:42:17;6.20;;;6.00;;
17925;SDS011;9088;55.674;13.354;2023-04-25T13:44:44;6.07;;;5.87;;
17925;SDS011;9088;55.674;13.354;2023-04-25T13:47:11;5.87;;;5.67;;
17925;SDS011;9088;55.674;13.354;2023-04-25T13:49:38;5.30;;;5.10;;
17925;SDS011;9088;55.674;13.354;2023-04-25T13:52:06;5.57;;;5.37;;
17925;SDS011;9088;55.674;13.354;2023-04-25T13:54:33;5.60;;;5.40;;
17925;SDS011;9088;55.674;13.354;2023-04-25T13:57:00;5.60;;;5.40;;
17925;SDS011;9088;55.674;13.354;2023-04-25T13:59:30;5.50;;;5.30;;
17925;SDS011;9088;55.674;13.354;2023-04-25T14:01:57;5.60;;;5.40;;
17925;SDS011;9088;55.674;13.354;2023-04-25T14:04:24;5.67;;;5.47;;
17925;SDS011;9088;55.674;13.354;2023-04-25T14:06:52;5.60;;;5.40;;
17925;SDS011;9088;55.674;13.354;2023-04-25T14:09:21;5.60;;;5.40;;
17925;SDS011;9088;55.674;13.354;2023-04-25T14:11:52;5.70;;;5.50;;
17925;SDS011;9088;55.674;13.354;2023-04-25T14:14:19;5.20;;;5.00;;
17925;SDS011;9088;55.674;13.354;2023-04-25T14:16:46;5.40;;;5.20;;
17925;SDS011;9088;55.674;13.354;2023-04-25T14:19:14;5.50;;;5.30;;
17925;SDS011;9088;55.674;13.354;2023-04-25T14:21:41;5.37;;;5.17;;
17925;SDS011;9088;55.674;13.354;2023-04-25T14:24:08;5.23;;;5.03;;
17925;SDS011;9088;55.674;13.354;2023-04-25T14:26:37;5.40;;;5.20;;
17925;SDS011;9088;55.674;13.354;2023-04-25T14:29:04;5.50;;;5.30;;
17925;SDS011;9088;55.674;13.354;2023-04-25T14:31:31;5.40;;;5.20;;
17925;SDS011;9088;55.674;13.354;2023-04-25T14:33:59;5.30;;;5.10;;
17925;SDS011;9088;55.674;13.354;2023-04-25T14:36:26;5.50;;;5.30;;
17925;SDS011;9088;55.674;13.354;2023-04-25T14:38:53;5.50;;;5.30;;
17925;SDS011;9088;55.674;13.354;2023-04-25T14:41:20;5.10;;;4.90;;
17925;SDS011;9088;55.674;13.354;2023-04-25T14:43:49;5.00;;;4.80;;
17925;SDS011;9088;55.674;13.354;2023-04-25T14:46:16;5.40;;;5.20;;
17925;SDS011;9088;55.674;13.354;2023-04-25T14:48:43;5.40;;;5.20;;
17925;SDS011;9088;55.674;13.354;2023-04-25T14:51:10;5.33;;;5.13;;